createdAt,value
2023-01-19T05:25:42.348Z,91.33
2023-01-19T05:28:56.646Z,91.33
2023-01-19T05:32:10.806Z,91.00
2023-01-19T05:35:35.662Z,90.82
2023-01-19T05:38:50.008Z,90.00
2023-01-19T05:42:05.644Z,91.01
2023-01-19T05:45:19.600Z,91.41
2023-01-19T05:48:33.564Z,90.87
2023-01-19T05:51:47.192Z,90.61
2023-01-19T05:55:01.037Z,90.81
2023-01-19T05:58:16.090Z,90.76
2023-01-19T06:01:29.964Z,89.25
2023-01-19T06:04:43.541Z,91.56
2023-01-19T06:07:57.865Z,91.50
2023-01-19T06:11:11.863Z,88.99
2023-01-19T06:14:26.869Z,89.97
2023-01-19T06:17:40.749Z,88.18
2023-01-19T06:20:58.817Z,89.67
2023-01-19T06:24:14.493Z,88.97
2023-01-19T06:27:28.679Z,87.73
2023-01-19T06:30:43.680Z,88.55
2023-01-19T06:33:57.515Z,89.90
2023-01-19T06:37:12.221Z,89.30
2023-01-19T06:40:26.071Z,87.64
2023-01-19T06:43:40.001Z,89.36
2023-01-19T06:47:15.872Z,89.48
2023-01-19T06:50:28.818Z,88.61
2023-01-19T06:53:42.688Z,87.14
2023-01-19T06:56:56.272Z,88.62
2023-01-19T07:00:11.899Z,89.08
2023-01-19T07:03:27.307Z,87.91
2023-01-19T07:06:41.693Z,86.33
2023-01-19T07:09:55.741Z,87.95
2023-01-19T07:13:09.623Z,85.49
2023-01-19T07:16:23.774Z,84.87
2023-01-19T07:19:39.187Z,86.54
2023-01-19T07:22:56.967Z,86.28
2023-01-19T07:26:10.932Z,88.14
2023-01-19T07:29:24.925Z,88.20
2023-01-19T07:32:39.111Z,86.43
2023-01-19T07:35:54.531Z,85.37
2023-01-19T07:39:08.425Z,86.91
2023-01-19T07:42:21.996Z,85.85
2023-01-19T07:45:36.206Z,85.46
2023-01-19T07:48:50.441Z,87.19
2023-01-19T07:52:05.905Z,86.10
2023-01-19T07:55:19.863Z,84.77
2023-01-19T07:58:33.382Z,85.49
2023-01-19T08:01:47.263Z,85.06
2023-01-19T08:05:01.243Z,87.22
2023-01-19T08:08:16.556Z,86.78
2023-01-19T08:11:30.455Z,90.64
2023-01-19T08:14:44.100Z,87.30
2023-01-19T08:17:58.990Z,87.26
2023-01-19T08:21:12.969Z,85.83
2023-01-19T08:24:29.212Z,86.38
2023-01-19T08:27:43.175Z,86.40
2023-01-19T08:30:57.111Z,87.21
2023-01-19T08:34:11.711Z,86.44
2023-01-19T08:37:25.601Z,85.08
2023-01-19T08:40:41.398Z,85.72
2023-01-19T08:43:55.353Z,85.01
2023-01-19T08:47:09.601Z,86.24
2023-01-19T08:50:23.673Z,85.95
2023-01-19T08:53:37.633Z,86.12
2023-01-19T08:56:52.651Z,85.75
2023-01-19T09:00:07.948Z,86.50
2023-01-19T09:03:22.807Z,85.91
2023-01-19T09:06:37.046Z,88.00
2023-01-19T09:09:51.149Z,86.23
2023-01-19T09:13:08.685Z,86.68
2023-01-19T09:16:22.668Z,86.90
2023-01-19T09:19:36.625Z,87.55
2023-01-19T09:22:50.216Z,87.66
2023-01-19T09:26:05.116Z,87.09
2023-01-19T09:29:20.790Z,86.07
2023-01-19T09:32:38.720Z,85.98
2023-01-19T09:35:53.729Z,85.71
2023-01-19T09:39:07.690Z,84.92
2023-01-19T09:42:22.329Z,85.65
2023-01-19T09:45:37.815Z,85.27
2023-01-19T09:48:52.952Z,85.66
2023-01-19T09:52:07.060Z,86.81
2023-01-19T09:55:22.117Z,86.83
2023-01-19T09:58:36.118Z,85.67
2023-01-19T10:02:18.309Z,85.86
2023-01-19T10:05:33.192Z,86.13
2023-01-19T10:08:50.982Z,85.44
2023-01-19T10:12:09.069Z,85.02
2023-01-19T10:15:29.018Z,85.60
2023-01-19T10:18:48.443Z,86.15
2023-01-19T10:22:05.011Z,85.10
2023-01-19T10:25:22.235Z,85.78
2023-01-19T10:28:36.650Z,86.23
2023-01-19T10:31:51.243Z,87.36
2023-01-19T10:35:14.223Z,86.28
2023-01-19T10:38:29.159Z,88.56
2023-01-19T10:41:43.897Z,87.53
2023-01-19T10:44:58.000Z,87.77
2023-01-19T10:48:13.168Z,87.71
2023-01-19T10:51:28.739Z,87.34
2023-01-19T10:54:44.114Z,86.72
2023-01-19T10:57:58.337Z,86.77
2023-01-19T11:01:17.358Z,86.29
2023-01-19T11:04:31.436Z,85.86
2023-01-19T11:07:46.831Z,85.64
2023-01-19T11:11:04.469Z,84.64
2023-01-19T11:14:20.802Z,86.88
2023-01-19T11:17:34.693Z,86.21
2023-01-19T11:20:49.749Z,85.93
2023-01-19T11:24:06.514Z,85.71
2023-01-19T11:27:21.024Z,85.85
2023-01-19T11:30:34.974Z,85.26
2023-01-19T11:33:51.029Z,84.64
2023-01-19T11:37:05.984Z,84.34
2023-01-19T11:40:21.484Z,84.96
2023-01-19T11:43:48.185Z,84.98
2023-01-19T11:47:03.705Z,84.77
2023-01-19T11:50:23.955Z,84.10
2023-01-19T11:53:37.909Z,83.93
2023-01-19T11:56:53.332Z,84.27
2023-01-19T12:00:18.945Z,83.14
2023-01-19T12:03:34.246Z,82.84
2023-01-19T12:06:50.342Z,83.97
2023-01-19T12:10:24.823Z,83.64
2023-01-19T12:13:40.285Z,83.14
2023-01-19T12:16:57.504Z,82.65
2023-01-19T12:20:18.356Z,83.68
2023-01-19T12:23:45.377Z,84.16
2023-01-19T12:27:00.899Z,84.23
2023-01-19T12:30:21.347Z,85.06
2023-01-19T12:33:36.111Z,84.57
2023-01-19T12:36:50.521Z,83.72
2023-01-19T12:40:06.911Z,83.70
2023-01-19T12:43:20.874Z,84.71
2023-01-19T12:46:36.185Z,83.69
2023-01-19T12:49:51.048Z,84.95
2023-01-19T12:53:07.967Z,85.20
2023-01-19T12:56:21.885Z,82.84
2023-01-19T12:59:36.694Z,84.62
2023-01-19T13:02:52.946Z,83.64
2023-01-19T13:06:07.403Z,85.07
2023-01-19T13:09:31.023Z,83.65
2023-01-19T13:13:14.907Z,83.10
2023-01-19T13:16:52.368Z,83.56
2023-01-19T13:20:28.164Z,83.77
2023-01-19T13:23:54.001Z,82.87
2023-01-19T13:27:12.586Z,84.57
2023-01-19T13:30:28.638Z,85.42
2023-01-19T13:33:49.839Z,83.33
2023-01-19T13:37:06.513Z,85.00
2023-01-19T13:40:23.883Z,85.36
2023-01-19T13:43:38.490Z,85.13
2023-01-19T13:46:52.625Z,85.37
2023-01-19T13:50:07.630Z,84.41
2023-01-19T13:53:24.410Z,83.76
2023-01-19T13:56:40.348Z,83.55
2023-01-19T14:00:08.987Z,84.98
2023-01-19T14:03:23.797Z,86.68
2023-01-19T14:06:39.380Z,86.53
2023-01-19T14:10:04.861Z,87.26
2023-01-19T14:13:19.675Z,87.52
2023-01-19T14:16:33.817Z,88.33
2023-01-19T14:19:50.904Z,86.02
2023-01-19T14:23:04.908Z,86.71
2023-01-19T14:26:43.321Z,86.35
2023-01-19T14:29:57.388Z,85.63
2023-01-19T14:33:30.084Z,84.84
2023-01-19T14:36:44.143Z,84.35
2023-01-19T14:39:59.853Z,86.22
2023-01-19T14:43:15.209Z,84.84
2023-01-19T14:46:29.217Z,84.58
2023-01-19T14:49:43.189Z,83.48
2023-01-19T14:52:57.792Z,83.27
2023-01-19T14:56:11.716Z,85.39
2023-01-19T14:59:26.743Z,84.43
2023-01-19T15:02:40.618Z,83.79
2023-01-19T15:05:54.711Z,83.02
2023-01-19T15:09:10.190Z,83.13
2023-01-19T15:12:24.159Z,83.12
2023-01-19T15:15:39.172Z,82.80
2023-01-19T15:18:53.096Z,82.55
2023-01-19T15:22:12.121Z,83.39
2023-01-19T15:25:27.006Z,82.93
2023-01-19T15:28:41.097Z,82.29
2023-01-19T15:31:56.469Z,82.19
2023-01-19T15:35:14.519Z,82.39
2023-01-19T15:38:28.491Z,80.87
2023-01-19T15:41:42.089Z,80.94
2023-01-19T15:44:56.005Z,81.00
2023-01-19T15:48:12.108Z,80.22
2023-01-19T15:51:26.886Z,81.84
2023-01-19T15:54:40.864Z,82.94
2023-01-19T15:57:55.203Z,82.69
2023-01-19T16:01:12.286Z,82.60
2023-01-19T16:04:27.766Z,83.36
2023-01-19T16:07:41.715Z,82.31
2023-01-19T16:10:55.755Z,82.26
2023-01-19T16:14:09.769Z,82.24
2023-01-19T16:17:23.376Z,81.86
2023-01-19T16:20:38.255Z,80.69
2023-01-19T16:23:51.828Z,81.96
2023-01-19T16:27:05.384Z,83.68
